createdAt,value
2023-03-07T00:01:31.148Z,0.33
2023-03-07T00:04:00.266Z,0.31
2023-03-07T00:06:28.849Z,0.29
2023-03-07T00:09:00.146Z,0.31
2023-03-07T00:11:29.315Z,0.32
2023-03-07T00:13:57.779Z,0.39
2023-03-07T00:16:26.543Z,0.31
2023-03-07T00:18:55.889Z,0.36
2023-03-07T00:21:27.529Z,0.36
2023-03-07T00:23:56.257Z,0.41
2023-03-07T00:26:27.436Z,0.39
2023-03-07T00:28:56.219Z,0.38
2023-03-07T00:31:25.378Z,0.41
2023-03-07T00:33:53.897Z,0.35
2023-03-07T00:36:23.349Z,0.31
2023-03-07T00:38:52.643Z,0.30
2023-03-07T00:41:26.734Z,0.27
2023-03-07T00:43:56.658Z,0.22
2023-03-07T00:46:29.010Z,0.03
2023-03-07T00:48:57.473Z,-0.14
2023-03-07T00:51:25.943Z,-0.04
2023-03-07T00:53:54.271Z,-0.10
2023-03-07T00:56:24.650Z,-0.12
2023-03-07T00:58:53.216Z,-0.05
2023-03-07T01:01:25.356Z,-0.11
2023-03-07T01:03:54.095Z,-0.22
2023-03-07T01:06:26.812Z,-0.26
2023-03-07T01:08:58.943Z,-0.28
2023-03-07T01:11:29.684Z,-0.15
2023-03-07T01:14:01.830Z,-0.09
2023-03-07T01:16:33.733Z,-0.05
2023-03-07T01:19:05.209Z,-0.06
2023-03-07T01:21:39.448Z,0.03
2023-03-07T01:24:11.135Z,0.10
2023-03-07T01:26:39.810Z,0.03
2023-03-07T01:29:09.445Z,0.01
2023-03-07T01:31:37.947Z,-0.04
2023-03-07T01:34:06.664Z,-0.09
2023-03-07T01:36:36.727Z,-0.09
2023-03-07T01:39:14.854Z,-0.19
2023-03-07T01:41:46.844Z,-0.25
2023-03-07T01:44:17.110Z,-0.26
2023-03-07T01:46:55.406Z,-0.25
2023-03-07T01:49:45.307Z,-0.20
2023-03-07T01:52:21.519Z,-0.27
2023-03-07T01:54:54.901Z,-0.25
2023-03-07T01:57:30.491Z,-0.19
2023-03-07T02:00:01.682Z,-0.16
2023-03-07T02:02:30.469Z,-0.07
2023-03-07T02:05:25.972Z,0.06
2023-03-07T02:07:59.358Z,-0.09
2023-03-07T02:10:29.048Z,-0.00
2023-03-07T02:12:57.564Z,0.03
2023-03-07T02:15:26.031Z,0.05
2023-03-07T02:17:59.723Z,0.14
2023-03-07T02:20:53.731Z,0.13
2023-03-07T02:23:46.411Z,0.04
2023-03-07T02:26:29.661Z,-0.05
2023-03-07T02:29:56.682Z,-0.14
2023-03-07T02:32:28.005Z,-0.29
2023-03-07T02:34:56.593Z,-0.15
2023-03-07T02:37:33.119Z,-0.17
2023-03-07T02:40:07.611Z,-0.16
2023-03-07T02:42:38.871Z,-0.19
2023-03-07T02:45:10.874Z,-0.13
2023-03-07T02:47:39.657Z,-0.12
2023-03-07T02:50:08.998Z,-0.10
2023-03-07T02:52:37.284Z,-0.09
2023-03-07T02:55:06.559Z,-0.13
2023-03-07T02:57:36.250Z,-0.09
2023-03-07T03:00:10.833Z,0.02
2023-03-07T03:02:39.632Z,-0.06
2023-03-07T03:05:08.488Z,-0.05
2023-03-07T03:07:37.082Z,-0.06
2023-03-07T03:10:05.981Z,-0.02
2023-03-07T03:12:34.065Z,0.04
2023-03-07T03:15:02.775Z,0.05
2023-03-07T03:17:31.195Z,0.03
2023-03-07T03:19:59.641Z,0.01
2023-03-07T03:22:27.868Z,-0.02
2023-03-07T03:24:56.835Z,-0.03
2023-03-07T03:27:25.037Z,-0.01
2023-03-07T03:29:56.501Z,-0.13
2023-03-07T03:32:27.732Z,-0.28
2023-03-07T03:34:59.015Z,-0.34
2023-03-07T03:37:27.500Z,-0.30
2023-03-07T03:39:55.752Z,-0.20
2023-03-07T03:42:24.106Z,-0.17
2023-03-07T03:44:52.540Z,-0.15
2023-03-07T03:47:21.009Z,-0.16
2023-03-07T03:49:49.404Z,-0.13
2023-03-07T03:52:17.976Z,-0.12
2023-03-07T03:54:46.507Z,-0.15
2023-03-07T03:57:18.045Z,-0.19
2023-03-07T03:59:48.407Z,-0.22
2023-03-07T04:02:16.511Z,-0.25
2023-03-07T04:04:45.067Z,-0.17
2023-03-07T04:07:13.563Z,-0.11
2023-03-07T04:09:41.847Z,-0.13
2023-03-07T04:12:10.184Z,-0.13
2023-03-07T04:14:38.949Z,-0.16
2023-03-07T04:17:07.681Z,-0.13
2023-03-07T04:19:35.884Z,-0.02
2023-03-07T04:22:04.480Z,-0.01
2023-03-07T04:24:32.720Z,-0.02
2023-03-07T04:27:00.964Z,-0.03
2023-03-07T04:29:30.767Z,0.01
2023-03-07T04:31:59.616Z,-0.06
2023-03-07T04:34:28.032Z,0.02
2023-03-07T04:36:56.518Z,-0.01
2023-03-07T04:39:26.176Z,-0.01
2023-03-07T04:41:54.420Z,-0.08
2023-03-07T04:44:22.781Z,-0.09
2023-03-07T04:46:50.908Z,-0.20
2023-03-07T04:49:19.150Z,-0.23
2023-03-07T04:51:47.510Z,-0.34
2023-03-07T04:54:15.746Z,-0.42
2023-03-07T04:56:44.136Z,-0.43
2023-03-07T04:59:12.830Z,-0.39
2023-03-07T05:01:44.045Z,-0.43
2023-03-07T05:04:12.337Z,-0.68
2023-03-07T05:06:42.138Z,-0.70
2023-03-07T05:09:11.863Z,-0.64
2023-03-07T05:11:40.872Z,-0.63
2023-03-07T05:14:10.646Z,-0.73
2023-03-07T05:16:38.829Z,-0.76
2023-03-07T05:19:09.202Z,-0.91
2023-03-07T05:21:40.225Z,-1.03
2023-03-07T05:24:08.896Z,-0.85
2023-03-07T05:26:37.290Z,-0.86
2023-03-07T05:29:05.356Z,-0.97
2023-03-07T05:31:33.945Z,-0.84
2023-03-07T05:34:02.318Z,-0.77
2023-03-07T05:36:30.741Z,-0.72
2023-03-07T05:38:59.325Z,-0.68
2023-03-07T05:41:27.672Z,-0.82
2023-03-07T05:43:56.074Z,-0.82
2023-03-07T05:46:25.745Z,-0.77
2023-03-07T05:48:54.286Z,-0.78
2023-03-07T05:51:22.595Z,-0.75
2023-03-07T05:53:51.253Z,-0.75
2023-03-07T05:56:21.236Z,-0.68
2023-03-07T05:58:49.464Z,-0.64
2023-03-07T06:01:17.887Z,-0.50
2023-03-07T06:03:47.896Z,-0.62
2023-03-07T06:06:16.508Z,-0.54
2023-03-07T06:08:47.704Z,-0.57
2023-03-07T06:11:15.858Z,-0.38
2023-03-07T06:13:44.412Z,-0.20
2023-03-07T06:16:12.816Z,-0.19
2023-03-07T06:18:41.917Z,-0.33
2023-03-07T06:21:13.537Z,-0.24
2023-03-07T06:23:41.731Z,0.02
2023-03-07T06:26:12.741Z,0.03
2023-03-07T06:28:41.860Z,0.07
2023-03-07T06:31:19.087Z,0.17
2023-03-07T06:33:48.053Z,0.26
2023-03-07T06:36:18.147Z,0.37
2023-03-07T06:38:48.768Z,0.38
2023-03-07T06:41:17.287Z,0.39
2023-03-07T06:43:45.550Z,0.48
2023-03-07T06:46:14.332Z,0.63
2023-03-07T06:48:42.666Z,0.69
2023-03-07T06:51:11.597Z,0.76
2023-03-07T06:53:39.807Z,0.81
2023-03-07T06:56:10.336Z,0.81
2023-03-07T06:58:38.822Z,0.91
2023-03-07T07:01:07.206Z,0.96
2023-03-07T07:03:38.743Z,0.89
2023-03-07T07:06:07.044Z,0.98
2023-03-07T07:08:35.150Z,1.04
2023-03-07T07:11:03.827Z,1.00
2023-03-07T07:13:32.216Z,1.11
2023-03-07T07:16:06.048Z,1.22
2023-03-07T07:18:34.844Z,1.16
2023-03-07T07:21:04.283Z,1.13
2023-03-07T07:23:32.943Z,1.35
2023-03-07T07:26:02.168Z,1.54
2023-03-07T07:28:31.246Z,1.50
2023-03-07T07:31:03.880Z,1.48
2023-03-07T07:33:32.150Z,1.49
2023-03-07T07:36:00.590Z,1.66
2023-03-07T07:38:29.212Z,1.67
2023-03-07T07:40:57.654Z,1.70
2023-03-07T07:43:26.008Z,1.71
2023-03-07T07:45:55.689Z,1.61
2023-03-07T07:48:25.841Z,1.76
2023-03-07T07:50:54.359Z,1.85
2023-03-07T07:53:22.573Z,1.78
2023-03-07T07:55:50.987Z,1.89
2023-03-07T07:58:20.312Z,2.01
2023-03-07T08:00:53.614Z,2.05
2023-03-07T08:03:22.147Z,1.97
2023-03-07T08:05:53.070Z,2.01
2023-03-07T08:08:21.093Z,1.98
2023-03-07T08:10:50.301Z,2.03
2023-03-07T08:13:18.976Z,2.07
2023-03-07T08:15:47.357Z,2.13
2023-03-07T08:18:16.015Z,2.15
2023-03-07T08:20:44.289Z,2.28
2023-03-07T08:23:12.560Z,2.38
2023-03-07T08:25:41.317Z,2.38
2023-03-07T08:28:10.040Z,2.40
2023-03-07T08:30:38.721Z,2.44
2023-03-07T08:33:07.883Z,2.63
2023-03-07T08:35:36.600Z,2.64
2023-03-07T08:38:07.881Z,2.64
2023-03-07T08:40:36.141Z,2.54
2023-03-07T08:43:04.362Z,2.71
2023-03-07T08:45:33.137Z,2.79
2023-03-07T08:48:01.394Z,2.91
2023-03-07T08:50:29.633Z,2.96
2023-03-07T08:52:58.099Z,3.08
2023-03-07T08:55:26.720Z,3.02
2023-03-07T08:57:55.375Z,3.06
2023-03-07T09:00:23.904Z,3.14
2023-03-07T09:02:54.574Z,3.08
2023-03-07T09:05:23.007Z,3.26
2023-03-07T09:07:51.795Z,3.29
2023-03-07T09:10:21.149Z,3.20
2023-03-07T09:12:52.509Z,2.92
2023-03-07T09:15:20.711Z,2.91
2023-03-07T09:17:48.959Z,3.03
2023-03-07T09:20:18.908Z,2.92
2023-03-07T09:22:47.977Z,2.92
2023-03-07T09:25:16.552Z,2.86
2023-03-07T09:27:45.921Z,3.03
2023-03-07T09:30:14.998Z,3.11
2023-03-07T09:32:44.086Z,3.06
2023-03-07T09:35:12.499Z,3.12
2023-03-07T09:37:43.648Z,3.09
2023-03-07T09:40:20.622Z,3.27
2023-03-07T09:43:03.057Z,2.96
2023-03-07T09:45:50.534Z,3.12
2023-03-07T09:48:34.186Z,3.10
2023-03-07T09:51:13.948Z,2.99
2023-03-07T09:53:51.006Z,3.08
2023-03-07T09:56:32.653Z,3.07
2023-03-07T09:59:22.788Z,3.24
2023-03-07T10:02:01.657Z,3.12
2023-03-07T10:04:51.605Z,3.23
2023-03-07T10:07:27.214Z,3.13
2023-03-07T10:10:05.787Z,3.21
2023-03-07T10:12:58.952Z,3.52
2023-03-07T10:16:01.484Z,3.51
2023-03-07T10:18:48.983Z,3.56
2023-03-07T10:21:47.089Z,3.48
2023-03-07T10:24:21.568Z,3.59
2023-03-07T10:26:59.613Z,3.78
2023-03-07T10:29:37.967Z,3.82
2023-03-07T10:32:37.597Z,3.88
2023-03-07T10:35:12.081Z,3.73
2023-03-07T10:38:00.407Z,3.73
2023-03-07T10:40:50.457Z,3.79
2023-03-07T10:43:25.529Z,3.63
2023-03-07T10:46:04.693Z,3.67
2023-03-07T10:48:39.028Z,3.60
2023-03-07T10:51:16.174Z,3.66
2023-03-07T10:53:44.378Z,3.74
2023-03-07T10:56:16.504Z,3.69
2023-03-07T10:59:09.713Z,3.59
2023-03-07T11:01:52.064Z,3.52
2023-03-07T11:04:27.615Z,3.35
2023-03-07T11:07:00.979Z,3.19
2023-03-07T11:09:34.353Z,3.46
2023-03-07T11:12:10.608Z,3.70
2023-03-07T11:15:07.435Z,3.65
2023-03-07T11:17:51.225Z,3.56
2023-03-07T11:20:30.625Z,3.46
2023-03-07T11:23:19.251Z,3.36
2023-03-07T11:25:47.423Z,3.51
2023-03-07T11:28:33.710Z,3.57
2023-03-07T11:31:10.665Z,3.47
2023-03-07T11:33:59.516Z,3.67
2023-03-07T11:36:33.415Z,3.60
2023-03-07T11:39:07.318Z,3.63
2023-03-07T11:41:38.239Z,3.62
2023-03-07T11:44:23.817Z,3.59
2023-03-07T11:47:07.946Z,3.69
2023-03-07T11:49:43.503Z,3.63
2023-03-07T11:52:47.097Z,3.49
2023-03-07T11:55:42.449Z,3.62
2023-03-07T11:58:29.764Z,3.74
2023-03-07T12:01:16.304Z,3.58
2023-03-07T12:04:13.679Z,3.80
2023-03-07T12:06:53.965Z,3.70
2023-03-07T12:09:40.158Z,3.96
2023-03-07T12:12:32.498Z,3.88
2023-03-07T12:15:27.401Z,4.02
2023-03-07T12:18:17.665Z,3.92
2023-03-07T12:21:15.071Z,4.13
2023-03-07T12:23:51.967Z,4.21
2023-03-07T12:26:36.785Z,3.92
2023-03-07T12:29:20.907Z,3.89
2023-03-07T12:31:54.786Z,3.92
2023-03-07T12:34:36.110Z,3.96
2023-03-07T12:37:16.766Z,4.03
2023-03-07T12:40:00.200Z,4.12
2023-03-07T12:42:56.391Z,4.19
2023-03-07T12:45:28.830Z,4.25
2023-03-07T12:48:31.192Z,4.37
2023-03-07T12:51:07.551Z,4.23
2023-03-07T12:53:56.315Z,4.32
2023-03-07T12:56:49.827Z,4.45
2023-03-07T12:59:21.186Z,4.43
2023-03-07T13:02:01.403Z,4.21
2023-03-07T13:04:34.565Z,4.28
2023-03-07T13:07:15.575Z,4.29
2023-03-07T13:09:46.734Z,4.32
2023-03-07T13:12:20.529Z,4.25
2023-03-07T13:15:22.628Z,4.29
2023-03-07T13:17:50.984Z,4.33
2023-03-07T13:20:35.055Z,4.40
2023-03-07T13:23:32.676Z,4.27
2023-03-07T13:26:06.061Z,4.40
2023-03-07T13:28:36.360Z,4.31
2023-03-07T13:31:38.027Z,4.49
2023-03-07T13:34:55.344Z,4.47
2023-03-07T13:37:53.498Z,4.43
2023-03-07T13:40:42.688Z,4.42
2023-03-07T13:43:20.614Z,4.44
2023-03-07T13:45:58.360Z,4.64
2023-03-07T13:48:32.820Z,4.35
2023-03-07T13:51:04.092Z,4.62
2023-03-07T13:53:54.597Z,4.62
2023-03-07T13:56:30.088Z,4.66
2023-03-07T13:59:10.403Z,4.72
2023-03-07T14:01:49.413Z,4.62
2023-03-07T14:04:40.477Z,4.78
2023-03-07T14:07:25.140Z,4.76
2023-03-07T14:10:01.203Z,4.73
2023-03-07T14:13:00.584Z,4.90
2023-03-07T14:15:38.724Z,4.68
2023-03-07T14:18:40.754Z,4.71
2023-03-07T14:21:52.288Z,4.61
2023-03-07T14:24:22.043Z,4.30
2023-03-07T14:26:57.120Z,4.78
2023-03-07T14:29:28.217Z,4.68
2023-03-07T14:31:59.337Z,4.81
2023-03-07T14:34:29.327Z,4.66
2023-03-07T14:37:02.319Z,4.85
2023-03-07T14:39:34.049Z,4.72
2023-03-07T14:42:25.667Z,4.99
2023-03-07T14:45:28.265Z,4.84
2023-03-07T14:48:01.989Z,4.76
2023-03-07T14:50:31.844Z,4.78
2023-03-07T14:53:14.612Z,4.82
2023-03-07T14:55:49.797Z,4.75
2023-03-07T14:58:27.494Z,4.77
2023-03-07T15:01:17.204Z,4.94
2023-03-07T15:03:53.656Z,4.96
2023-03-07T15:06:25.327Z,4.81
2023-03-07T15:09:02.877Z,4.88
2023-03-07T15:11:34.076Z,4.78
2023-03-07T15:14:08.713Z,5.01
2023-03-07T15:16:44.216Z,4.87
2023-03-07T15:19:14.473Z,4.93
2023-03-07T15:21:48.247Z,4.98
2023-03-07T15:24:34.888Z,4.96
2023-03-07T15:27:06.458Z,4.87
2023-03-07T15:29:34.829Z,5.07
2023-03-07T15:32:07.697Z,5.09
2023-03-07T15:34:39.012Z,4.85
2023-03-07T15:37:25.782Z,4.95
2023-03-07T15:40:22.810Z,4.88
2023-03-07T15:43:03.346Z,4.96
2023-03-07T15:45:40.696Z,4.93
2023-03-07T15:48:26.521Z,4.85
2023-03-07T15:50:58.418Z,4.80
2023-03-07T15:53:31.178Z,4.85
2023-03-07T15:56:03.577Z,4.77
2023-03-07T15:58:36.619Z,4.81
2023-03-07T16:01:20.059Z,4.92
2023-03-07T16:03:54.580Z,4.84
2023-03-07T16:06:38.293Z,4.94
2023-03-07T16:09:11.679Z,4.67
2023-03-07T16:11:42.748Z,4.57
2023-03-07T16:14:33.828Z,4.69
2023-03-07T16:17:18.144Z,4.67
2023-03-07T16:19:48.581Z,4.75
2023-03-07T16:22:19.911Z,4.82
2023-03-07T16:24:48.704Z,4.89
2023-03-07T16:27:22.322Z,4.62
2023-03-07T16:29:53.949Z,4.72
2023-03-07T16:32:23.285Z,4.84
2023-03-07T16:34:52.328Z,4.82
2023-03-07T16:37:21.103Z,4.86
2023-03-07T16:39:52.138Z,5.05
2023-03-07T16:42:23.346Z,4.77
2023-03-07T16:44:52.457Z,4.72
2023-03-07T16:47:21.125Z,4.78
2023-03-07T16:49:51.261Z,4.97
2023-03-07T16:52:19.526Z,4.78
2023-03-07T16:54:48.531Z,4.96
2023-03-07T16:57:22.261Z,4.95
2023-03-07T16:59:50.892Z,4.62
2023-03-07T17:02:24.294Z,4.44
2023-03-07T17:04:52.635Z,4.59
2023-03-07T17:07:23.055Z,4.93
2023-03-07T17:09:54.556Z,4.48
2023-03-07T17:12:24.039Z,4.55
2023-03-07T17:14:52.720Z,4.44
2023-03-07T17:17:29.639Z,4.51
2023-03-07T17:19:57.765Z,4.67
2023-03-07T17:22:26.144Z,4.61
2023-03-07T17:24:54.728Z,4.88
2023-03-07T17:27:25.343Z,4.97
2023-03-07T17:29:55.084Z,4.58
2023-03-07T17:32:23.617Z,4.66
2023-03-07T17:34:52.229Z,4.61
2023-03-07T17:37:20.560Z,4.80
2023-03-07T17:39:51.322Z,4.90
2023-03-07T17:42:24.898Z,4.95
2023-03-07T17:44:56.619Z,4.89
2023-03-07T17:47:26.974Z,4.84
2023-03-07T17:49:55.823Z,4.99
2023-03-07T17:52:24.655Z,5.05
2023-03-07T17:54:53.159Z,4.92
2023-03-07T17:57:22.380Z,4.71
2023-03-07T17:59:51.238Z,4.36
2023-03-07T18:02:19.500Z,4.50
2023-03-07T18:04:49.038Z,4.50
2023-03-07T18:07:20.380Z,4.16
2023-03-07T18:09:58.694Z,3.78
2023-03-07T18:12:39.534Z,3.96
2023-03-07T18:15:14.024Z,4.30
2023-03-07T18:17:48.228Z,3.89
2023-03-07T18:20:20.336Z,3.69
2023-03-07T18:23:04.253Z,3.96
2023-03-07T18:25:32.890Z,3.94
2023-03-07T18:28:03.102Z,3.67
2023-03-07T18:30:33.075Z,3.87
2023-03-07T18:33:04.368Z,3.88
2023-03-07T18:35:37.447Z,3.84
2023-03-07T18:38:06.223Z,3.88
2023-03-07T18:40:34.679Z,3.38
2023-03-07T18:43:03.204Z,3.59
2023-03-07T18:45:32.548Z,3.75
2023-03-07T18:48:03.530Z,3.76
2023-03-07T18:50:32.075Z,3.66
2023-03-07T18:53:00.733Z,3.44
2023-03-07T18:55:29.844Z,3.49
2023-03-07T18:57:58.818Z,3.59
2023-03-07T19:00:27.689Z,3.72
2023-03-07T19:02:57.147Z,3.61
2023-03-07T19:05:26.435Z,3.72
2023-03-07T19:07:56.581Z,3.52
2023-03-07T19:10:25.114Z,3.40
2023-03-07T19:12:53.525Z,3.57
2023-03-07T19:15:24.845Z,3.69
2023-03-07T19:17:53.433Z,3.54
2023-03-07T19:20:22.541Z,3.48
2023-03-07T19:22:51.350Z,3.59
2023-03-07T19:25:20.702Z,3.59
2023-03-07T19:27:49.617Z,3.65
2023-03-07T19:30:19.505Z,3.77
2023-03-07T19:32:47.702Z,3.59
2023-03-07T19:35:16.393Z,3.61
2023-03-07T19:37:44.602Z,3.70
2023-03-07T19:40:14.037Z,3.83
2023-03-07T19:42:42.483Z,3.77
2023-03-07T19:45:11.237Z,3.71
2023-03-07T19:47:41.603Z,3.53
2023-03-07T19:50:11.121Z,3.52
2023-03-07T19:52:39.602Z,3.47
2023-03-07T19:55:09.634Z,3.63
2023-03-07T19:57:37.932Z,3.72
2023-03-07T20:00:07.710Z,3.67
2023-03-07T20:02:36.465Z,3.80
2023-03-07T20:05:06.252Z,3.71
2023-03-07T20:07:34.772Z,3.70
2023-03-07T20:10:03.027Z,3.79
2023-03-07T20:12:34.397Z,3.70
2023-03-07T20:15:03.492Z,3.72
2023-03-07T20:17:32.892Z,3.52
2023-03-07T20:20:02.041Z,3.42
2023-03-07T20:22:30.526Z,3.72
2023-03-07T20:24:59.815Z,3.50
2023-03-07T20:27:28.420Z,3.57
2023-03-07T20:29:57.555Z,3.47
2023-03-07T20:32:26.384Z,3.29
2023-03-07T20:34:55.073Z,3.38
2023-03-07T20:37:23.373Z,3.40
2023-03-07T20:39:51.928Z,3.60
2023-03-07T20:42:20.449Z,3.56
2023-03-07T20:44:48.511Z,3.57
2023-03-07T20:47:16.869Z,3.41
2023-03-07T20:49:45.656Z,3.27
2023-03-07T20:52:14.644Z,3.24
2023-03-07T20:54:44.486Z,3.19
2023-03-07T20:57:13.017Z,3.10
2023-03-07T20:59:41.837Z,3.18
2023-03-07T21:02:11.089Z,3.28
2023-03-07T21:04:39.474Z,3.40
2023-03-07T21:07:08.015Z,3.26
2023-03-07T21:09:40.061Z,3.23
2023-03-07T21:12:09.769Z,3.27
2023-03-07T21:14:38.811Z,3.27
2023-03-07T21:17:12.967Z,3.18
2023-03-07T21:19:41.582Z,3.08
2023-03-07T21:22:13.013Z,3.22
2023-03-07T21:24:41.733Z,3.05
2023-03-07T21:27:10.877Z,3.05
2023-03-07T21:29:39.329Z,3.07
2023-03-07T21:32:07.980Z,3.02
2023-03-07T21:34:36.652Z,3.07
2023-03-07T21:37:07.461Z,3.09
2023-03-07T21:39:36.422Z,2.93
2023-03-07T21:42:04.923Z,3.12
2023-03-07T21:44:35.503Z,3.10
2023-03-07T21:47:04.039Z,3.18
2023-03-07T21:49:33.041Z,3.31
2023-03-07T21:52:01.230Z,3.35
2023-03-07T21:54:29.873Z,3.32
2023-03-07T21:57:00.556Z,3.57
2023-03-07T21:59:29.611Z,3.39
2023-03-07T22:01:58.983Z,3.18
2023-03-07T22:04:27.388Z,2.99
2023-03-07T22:06:55.852Z,3.07
2023-03-07T22:09:24.579Z,3.34
2023-03-07T22:11:53.140Z,3.33
2023-03-07T22:14:24.413Z,3.20
2023-03-07T22:16:52.830Z,2.89
2023-03-07T22:19:21.076Z,2.99
2023-03-07T22:21:50.920Z,3.11
2023-03-07T22:24:19.453Z,3.17
2023-03-07T22:26:47.986Z,3.25
2023-03-07T22:29:16.196Z,3.41
2023-03-07T22:31:44.488Z,3.21
2023-03-07T22:34:12.909Z,3.41
2023-03-07T22:36:41.552Z,3.22
2023-03-07T22:39:10.388Z,3.19
2023-03-07T22:41:38.508Z,3.37
2023-03-07T22:44:06.540Z,2.99
2023-03-07T22:46:35.296Z,3.37
2023-03-07T22:49:04.069Z,3.15
2023-03-07T22:51:32.932Z,2.98
2023-03-07T22:54:03.836Z,2.96
2023-03-07T22:56:32.607Z,3.06
2023-03-07T22:59:05.770Z,3.17
2023-03-07T23:01:34.254Z,3.23
2023-03-07T23:04:05.875Z,3.43
2023-03-07T23:06:36.265Z,3.21
2023-03-07T23:09:08.010Z,3.04
2023-03-07T23:11:36.534Z,3.21
2023-03-07T23:14:04.827Z,3.46
2023-03-07T23:16:34.172Z,3.52
2023-03-07T23:19:03.534Z,3.35
2023-03-07T23:21:36.764Z,3.41
2023-03-07T23:24:06.129Z,3.50
2023-03-07T23:26:37.118Z,3.45
2023-03-07T23:29:07.508Z,3.60
2023-03-07T23:31:39.160Z,3.71
2023-03-07T23:34:14.025Z,3.70
2023-03-07T23:36:42.860Z,3.62
2023-03-07T23:39:14.488Z,3.64
2023-03-07T23:41:43.947Z,3.47
2023-03-07T23:44:12.750Z,3.47
2023-03-07T23:46:42.080Z,3.60
2023-03-07T23:49:13.823Z,3.77
2023-03-07T23:51:42.257Z,3.64
2023-03-07T23:54:10.599Z,3.91
2023-03-07T23:56:38.742Z,3.72
2023-03-07T23:59:07.130Z,3.64
